sensor_id;sensor_type;location;lat;lon;timestamp;P1;durP1;ratioP1;P2;durP2;ratioP2
48975;SDS011;34791;52.752;8.346;2024-01-10T00:01:22;8.03;;;3.47;;
48975;SDS011;34791;52.752;8.346;2024-01-10T00:03:51;10.03;;;4.20;;
48975;SDS011;34791;52.752;8.346;2024-01-10T00:06:16;9.80;;;4.23;;
48975;SDS011;34791;52.752;8.346;2024-01-10T00:08:42;9.27;;;4.07;;
48975;SDS011;34791;52.752;8.346;2024-01-10T00:11:07;9.00;;;4.47;;
48975;SDS011;34791;52.752;8.346;2024-01-10T00:13:32;14.00;;;5.50;;
48975;SDS011;34791;52.752;8.346;2024-01-10T00:15:58;10.07;;;4.60;;
48975;SDS011;34791;52.752;8.346;2024-01-10T00:18:24;13.27;;;5.13;;
48975;SDS011;34791;52.752;8.346;2024-01-10T00:20:49;11.63;;;5.30;;
48975;SDS011;34791;52.752;8.346;2024-01-10T00:23:14;10.83;;;4.60;;
48975;SDS011;34791;52.752;8.346;2024-01-10T00:25:40;12.57;;;5.10;;
48975;SDS011;34791;52.752;8.346;2024-01-10T00:28:05;11.33;;;4.70;;
48975;SDS011;34791;52.752;8.346;2024-01-10T00:30:30;14.83;;;5.50;;
48975;SDS011;34791;52.752;8.346;2024-01-10T00:32:55;12.80;;;5.10;;
48975;SDS011;34791;52.752;8.346;2024-01-10T00:35:21;11.73;;;5.73;;
48975;SDS011;34791;52.752;8.346;2024-01-10T00:37:46;10.97;;;4.80;;
48975;SDS011;34791;52.752;8.346;2024-01-10T00:40:11;11.37;;;4.67;;
48975;SDS011;34791;52.752;8.346;2024-01-10T00:42:37;12.47;;;5.03;;
48975;SDS011;34791;52.752;8.346;2024-01-10T00:45:02;10.20;;;4.53;;
48975;SDS011;34791;52.752;8.346;2024-01-10T00:47:27;6.93;;;3.10;;
48975;SDS011;34791;52.752;8.346;2024-01-10T00:49:52;12.87;;;5.03;;
48975;SDS011;34791;52.752;8.346;2024-01-10T00:52:18;9.57;;;4.33;;
48975;SDS011;34791;52.752;8.346;2024-01-10T00:54:43;10.17;;;4.60;;
48975;SDS011;34791;52.752;8.346;2024-01-10T00:57:09;12.63;;;4.30;;
48975;SDS011;34791;52.752;8.346;2024-01-10T00:59:34;10.20;;;4.17;;
48975;SDS011;34791;52.752;8.346;2024-01-10T01:02:00;6.17;;;2.67;;
48975;SDS011;34791;52.752;8.346;2024-01-10T01:04:25;10.33;;;3.80;;
48975;SDS011;34791;52.752;8.346;2024-01-10T01:06:50;13.47;;;5.07;;
48975;SDS011;34791;52.752;8.346;2024-01-10T01:09:15;10.40;;;4.10;;
48975;SDS011;34791;52.752;8.346;2024-01-10T01:11:41;10.20;;;4.53;;
48975;SDS011;34791;52.752;8.346;2024-01-10T01:14:06;8.90;;;4.10;;
48975;SDS011;34791;52.752;8.346;2024-01-10T01:16:31;9.67;;;3.87;;
48975;SDS011;34791;52.752;8.346;2024-01-10T01:18:57;7.23;;;3.37;;
48975;SDS011;34791;52.752;8.346;2024-01-10T01:21:22;8.07;;;3.37;;
48975;SDS011;34791;52.752;8.346;2024-01-10T01:23:47;6.97;;;3.03;;
48975;SDS011;34791;52.752;8.346;2024-01-10T01:26:12;11.00;;;4.40;;
48975;SDS011;34791;52.752;8.346;2024-01-10T01:28:39;9.50;;;3.83;;
48975;SDS011;34791;52.752;8.346;2024-01-10T01:31:04;11.70;;;4.97;;
48975;SDS011;34791;52.752;8.346;2024-01-10T01:33:29;9.70;;;4.50;;
48975;SDS011;34791;52.752;8.346;2024-01-10T01:35:55;13.40;;;5.37;;
48975;SDS011;34791;52.752;8.346;2024-01-10T01:38:20;7.67;;;4.07;;
48975;SDS011;34791;52.752;8.346;2024-01-10T01:40:45;10.83;;;4.80;;
48975;SDS011;34791;52.752;8.346;2024-01-10T01:43:20;10.70;;;5.07;;
48975;SDS011;34791;52.752;8.346;2024-01-10T01:45:52;12.60;;;4.90;;
48975;SDS011;34791;52.752;8.346;2024-01-10T01:48:18;12.27;;;5.07;;
48975;SDS011;34791;52.752;8.346;2024-01-10T01:50:44;11.10;;;5.20;;
48975;SDS011;34791;52.752;8.346;2024-01-10T01:53:09;12.27;;;5.53;;
48975;SDS011;34791;52.752;8.346;2024-01-10T01:55:35;11.40;;;4.70;;
48975;SDS011;34791;52.752;8.346;2024-01-10T01:58:00;12.87;;;5.70;;
48975;SDS011;34791;52.752;8.346;2024-01-10T02:00:26;13.20;;;5.90;;
48975;SDS011;34791;52.752;8.346;2024-01-10T02:02:51;15.97;;;4.53;;
48975;SDS011;34791;52.752;8.346;2024-01-10T02:05:17;15.13;;;6.13;;
48975;SDS011;34791;52.752;8.346;2024-01-10T02:07:42;11.37;;;5.67;;
48975;SDS011;34791;52.752;8.346;2024-01-10T02:10:07;13.00;;;4.97;;
48975;SDS011;34791;52.752;8.346;2024-01-10T02:12:33;15.37;;;4.90;;
48975;SDS011;34791;52.752;8.346;2024-01-10T02:14:58;13.57;;;5.77;;
48975;SDS011;34791;52.752;8.346;2024-01-10T02:17:24;14.03;;;5.20;;
48975;SDS011;34791;52.752;8.346;2024-01-10T02:19:49;13.27;;;5.47;;
48975;SDS011;34791;52.752;8.346;2024-01-10T02:22:17;15.63;;;5.77;;
48975;SDS011;34791;52.752;8.346;2024-01-10T02:24:42;12.13;;;5.47;;
48975;SDS011;34791;52.752;8.346;2024-01-10T02:27:08;10.67;;;4.97;;
48975;SDS011;34791;52.752;8.346;2024-01-10T02:29:33;12.07;;;6.00;;
48975;SDS011;34791;52.752;8.346;2024-01-10T02:31:59;16.87;;;5.50;;
48975;SDS011;34791;52.752;8.346;2024-01-10T02:34:24;14.40;;;6.57;;
48975;SDS011;34791;52.752;8.346;2024-01-10T02:36:49;12.57;;;5.73;;
48975;SDS011;34791;52.752;8.346;2024-01-10T02:39:15;13.37;;;6.20;;
48975;SDS011;34791;52.752;8.346;2024-01-10T02:41:40;10.20;;;4.67;;
48975;SDS011;34791;52.752;8.346;2024-01-10T02:44:05;10.83;;;5.30;;
48975;SDS011;34791;52.752;8.346;2024-01-10T02:46:30;18.03;;;7.00;;
48975;SDS011;34791;52.752;8.346;2024-01-10T02:48:56;13.77;;;6.03;;
48975;SDS011;34791;52.752;8.346;2024-01-10T02:51:21;13.40;;;6.10;;
48975;SDS011;34791;52.752;8.346;2024-01-10T02:53:46;13.63;;;5.57;;
48975;SDS011;34791;52.752;8.346;2024-01-10T02:56:12;14.23;;;6.20;;
48975;SDS011;34791;52.752;8.346;2024-01-10T02:58:37;12.77;;;5.77;;
48975;SDS011;34791;52.752;8.346;2024-01-10T03:01:02;15.13;;;6.70;;
48975;SDS011;34791;52.752;8.346;2024-01-10T03:03:28;14.57;;;5.93;;
48975;SDS011;34791;52.752;8.346;2024-01-10T03:05:53;12.07;;;4.93;;
48975;SDS011;34791;52.752;8.346;2024-01-10T03:08:18;19.27;;;7.17;;
48975;SDS011;34791;52.752;8.346;2024-01-10T03:10:44;16.83;;;6.93;;
48975;SDS011;34791;52.752;8.346;2024-01-10T03:13:09;11.73;;;5.80;;
48975;SDS011;34791;52.752;8.346;2024-01-10T03:15:34;14.70;;;6.87;;
48975;SDS011;34791;52.752;8.346;2024-01-10T03:17:59;9.37;;;4.07;;
48975;SDS011;34791;52.752;8.346;2024-01-10T03:20:25;13.80;;;6.57;;
48975;SDS011;34791;52.752;8.346;2024-01-10T03:22:50;12.70;;;4.83;;
48975;SDS011;34791;52.752;8.346;2024-01-10T03:25:15;14.30;;;5.80;;
48975;SDS011;34791;52.752;8.346;2024-01-10T03:27:40;12.47;;;6.10;;
48975;SDS011;34791;52.752;8.346;2024-01-10T03:30:06;13.77;;;6.27;;
48975;SDS011;34791;52.752;8.346;2024-01-10T03:32:31;10.00;;;4.57;;
48975;SDS011;34791;52.752;8.346;2024-01-10T03:34:57;14.77;;;5.37;;
48975;SDS011;34791;52.752;8.346;2024-01-10T03:37:22;15.97;;;6.13;;
48975;SDS011;34791;52.752;8.346;2024-01-10T03:39:47;17.77;;;7.53;;
48975;SDS011;34791;52.752;8.346;2024-01-10T03:42:12;14.90;;;5.90;;
48975;SDS011;34791;52.752;8.346;2024-01-10T03:44:38;13.23;;;5.70;;
48975;SDS011;34791;52.752;8.346;2024-01-10T03:47:03;15.47;;;5.90;;
48975;SDS011;34791;52.752;8.346;2024-01-10T03:49:28;15.10;;;4.90;;
48975;SDS011;34791;52.752;8.346;2024-01-10T03:51:53;20.17;;;7.20;;
48975;SDS011;34791;52.752;8.346;2024-01-10T03:54:19;13.07;;;5.17;;
48975;SDS011;34791;52.752;8.346;2024-01-10T03:56:44;20.77;;;7.40;;
48975;SDS011;34791;52.752;8.346;2024-01-10T03:59:09;13.33;;;5.77;;
48975;SDS011;34791;52.752;8.346;2024-01-10T04:01:34;17.77;;;6.70;;
48975;SDS011;34791;52.752;8.346;2024-01-10T04:04:00;15.90;;;7.70;;
48975;SDS011;34791;52.752;8.346;2024-01-10T04:06:25;16.83;;;6.83;;
48975;SDS011;34791;52.752;8.346;2024-01-10T04:08:51;15.93;;;6.37;;
48975;SDS011;34791;52.752;8.346;2024-01-10T04:11:16;11.50;;;5.50;;
48975;SDS011;34791;52.752;8.346;2024-01-10T04:13:41;15.07;;;6.53;;
48975;SDS011;34791;52.752;8.346;2024-01-10T04:16:07;18.07;;;7.87;;
48975;SDS011;34791;52.752;8.346;2024-01-10T04:18:32;14.70;;;6.40;;
48975;SDS011;34791;52.752;8.346;2024-01-10T04:20:57;15.47;;;6.53;;
48975;SDS011;34791;52.752;8.346;2024-01-10T04:23:22;18.10;;;7.37;;
48975;SDS011;34791;52.752;8.346;2024-01-10T04:25:48;13.97;;;6.03;;
48975;SDS011;34791;52.752;8.346;2024-01-10T04:28:13;12.50;;;5.47;;
48975;SDS011;34791;52.752;8.346;2024-01-10T04:30:38;15.60;;;7.40;;
48975;SDS011;34791;52.752;8.346;2024-01-10T04:33:03;16.60;;;7.17;;
48975;SDS011;34791;52.752;8.346;2024-01-10T04:35:29;15.53;;;6.40;;
48975;SDS011;34791;52.752;8.346;2024-01-10T04:37:54;13.43;;;5.37;;
48975;SDS011;34791;52.752;8.346;2024-01-10T04:40:19;6.90;;;3.17;;
48975;SDS011;34791;52.752;8.346;2024-01-10T04:42:44;15.77;;;6.20;;
48975;SDS011;34791;52.752;8.346;2024-01-10T04:45:10;15.27;;;5.53;;
48975;SDS011;34791;52.752;8.346;2024-01-10T04:47:35;12.63;;;5.70;;
48975;SDS011;34791;52.752;8.346;2024-01-10T04:50:00;12.97;;;5.60;;
48975;SDS011;34791;52.752;8.346;2024-01-10T04:52:26;15.07;;;6.43;;
48975;SDS011;34791;52.752;8.346;2024-01-10T04:54:51;9.97;;;4.57;;
48975;SDS011;34791;52.752;8.346;2024-01-10T04:57:16;12.37;;;5.13;;
48975;SDS011;34791;52.752;8.346;2024-01-10T04:59:41;13.80;;;5.53;;
48975;SDS011;34791;52.752;8.346;2024-01-10T05:02:07;13.83;;;5.83;;
48975;SDS011;34791;52.752;8.346;2024-01-10T05:04:32;13.50;;;6.57;;
48975;SDS011;34791;52.752;8.346;2024-01-10T05:06:57;11.90;;;5.00;;
48975;SDS011;34791;52.752;8.346;2024-01-10T05:09:23;12.73;;;6.03;;
48975;SDS011;34791;52.752;8.346;2024-01-10T05:11:48;12.53;;;5.90;;
48975;SDS011;34791;52.752;8.346;2024-01-10T05:14:16;7.97;;;3.43;;
48975;SDS011;34791;52.752;8.346;2024-01-10T05:16:41;12.27;;;5.23;;
48975;SDS011;34791;52.752;8.346;2024-01-10T05:19:06;10.47;;;4.80;;
48975;SDS011;34791;52.752;8.346;2024-01-10T05:21:32;9.10;;;4.67;;
48975;SDS011;34791;52.752;8.346;2024-01-10T05:23:57;14.37;;;6.03;;
48975;SDS011;34791;52.752;8.346;2024-01-10T05:26:23;13.23;;;5.30;;
48975;SDS011;34791;52.752;8.346;2024-01-10T05:28:48;12.00;;;5.50;;
48975;SDS011;34791;52.752;8.346;2024-01-10T05:31:13;12.30;;;5.57;;
48975;SDS011;34791;52.752;8.346;2024-01-10T05:33:38;11.93;;;5.33;;
48975;SDS011;34791;52.752;8.346;2024-01-10T05:36:04;13.17;;;4.50;;
48975;SDS011;34791;52.752;8.346;2024-01-10T05:38:29;9.50;;;4.43;;
48975;SDS011;34791;52.752;8.346;2024-01-10T05:40:54;11.13;;;5.13;;
48975;SDS011;34791;52.752;8.346;2024-01-10T05:43:19;13.97;;;5.47;;
48975;SDS011;34791;52.752;8.346;2024-01-10T05:45:45;13.33;;;5.83;;
48975;SDS011;34791;52.752;8.346;2024-01-10T05:48:10;11.53;;;5.37;;
48975;SDS011;34791;52.752;8.346;2024-01-10T05:50:35;10.73;;;4.90;;
48975;SDS011;34791;52.752;8.346;2024-01-10T05:53:00;12.63;;;4.63;;
48975;SDS011;34791;52.752;8.346;2024-01-10T05:55:27;7.47;;;2.83;;
48975;SDS011;34791;52.752;8.346;2024-01-10T05:57:52;11.47;;;5.20;;
48975;SDS011;34791;52.752;8.346;2024-01-10T06:00:17;11.90;;;4.83;;
48975;SDS011;34791;52.752;8.346;2024-01-10T06:02:42;10.40;;;3.27;;
48975;SDS011;34791;52.752;8.346;2024-01-10T06:05:08;11.03;;;5.33;;
48975;SDS011;34791;52.752;8.346;2024-01-10T06:07:34;10.40;;;4.70;;
48975;SDS011;34791;52.752;8.346;2024-01-10T06:09:59;14.07;;;5.83;;
48975;SDS011;34791;52.752;8.346;2024-01-10T06:12:26;9.50;;;4.27;;
48975;SDS011;34791;52.752;8.346;2024-01-10T06:14:51;9.13;;;3.93;;
48975;SDS011;34791;52.752;8.346;2024-01-10T06:17:16;12.23;;;4.57;;
48975;SDS011;34791;52.752;8.346;2024-01-10T06:19:41;11.93;;;3.67;;
48975;SDS011;34791;52.752;8.346;2024-01-10T06:22:07;12.90;;;4.80;;
48975;SDS011;34791;52.752;8.346;2024-01-10T06:24:32;12.00;;;5.40;;
48975;SDS011;34791;52.752;8.346;2024-01-10T06:26:57;10.67;;;3.77;;
48975;SDS011;34791;52.752;8.346;2024-01-10T06:29:23;10.53;;;4.70;;
48975;SDS011;34791;52.752;8.346;2024-01-10T06:31:48;11.47;;;4.37;;
48975;SDS011;34791;52.752;8.346;2024-01-10T06:34:13;9.33;;;4.43;;
48975;SDS011;34791;52.752;8.346;2024-01-10T06:36:38;10.40;;;4.70;;
48975;SDS011;34791;52.752;8.346;2024-01-10T06:39:04;12.73;;;5.37;;
48975;SDS011;34791;52.752;8.346;2024-01-10T06:41:29;13.33;;;5.10;;
48975;SDS011;34791;52.752;8.346;2024-01-10T06:43:54;12.80;;;5.47;;
48975;SDS011;34791;52.752;8.346;2024-01-10T06:46:20;14.17;;;5.97;;
48975;SDS011;34791;52.752;8.346;2024-01-10T06:48:46;11.20;;;5.80;;
48975;SDS011;34791;52.752;8.346;2024-01-10T06:51:14;14.10;;;5.37;;
48975;SDS011;34791;52.752;8.346;2024-01-10T06:53:39;16.07;;;5.80;;
48975;SDS011;34791;52.752;8.346;2024-01-10T06:56:05;12.53;;;5.70;;
48975;SDS011;34791;52.752;8.346;2024-01-10T06:58:30;10.13;;;4.07;;
48975;SDS011;34791;52.752;8.346;2024-01-10T07:00:56;10.17;;;4.83;;
48975;SDS011;34791;52.752;8.346;2024-01-10T07:03:21;10.00;;;4.90;;
48975;SDS011;34791;52.752;8.346;2024-01-10T07:05:46;11.67;;;5.07;;
48975;SDS011;34791;52.752;8.346;2024-01-10T07:08:12;12.83;;;5.53;;
48975;SDS011;34791;52.752;8.346;2024-01-10T07:10:37;13.83;;;6.07;;
48975;SDS011;34791;52.752;8.346;2024-01-10T07:13:03;13.40;;;6.23;;
48975;SDS011;34791;52.752;8.346;2024-01-10T07:15:29;14.23;;;5.20;;
48975;SDS011;34791;52.752;8.346;2024-01-10T07:17:54;13.47;;;4.67;;
48975;SDS011;34791;52.752;8.346;2024-01-10T07:20:19;13.07;;;4.60;;
48975;SDS011;34791;52.752;8.346;2024-01-10T07:22:45;14.60;;;5.77;;
48975;SDS011;34791;52.752;8.346;2024-01-10T07:25:10;12.13;;;4.97;;
48975;SDS011;34791;52.752;8.346;2024-01-10T07:27:39;16.00;;;6.50;;
48975;SDS011;34791;52.752;8.346;2024-01-10T07:30:05;13.00;;;6.63;;
48975;SDS011;34791;52.752;8.346;2024-01-10T07:32:35;14.55;;;6.35;;
48975;SDS011;34791;52.752;8.346;2024-01-10T07:35:01;12.13;;;5.13;;
48975;SDS011;34791;52.752;8.346;2024-01-10T07:37:26;13.67;;;5.73;;
48975;SDS011;34791;52.752;8.346;2024-01-10T07:39:51;15.40;;;6.07;;
48975;SDS011;34791;52.752;8.346;2024-01-10T07:42:17;13.67;;;6.43;;
48975;SDS011;34791;52.752;8.346;2024-01-10T07:44:43;13.33;;;5.47;;
48975;SDS011;34791;52.752;8.346;2024-01-10T07:47:08;16.23;;;6.53;;
48975;SDS011;34791;52.752;8.346;2024-01-10T07:49:33;11.63;;;5.03;;
48975;SDS011;34791;52.752;8.346;2024-01-10T07:51:59;12.70;;;5.03;;
48975;SDS011;34791;52.752;8.346;2024-01-10T07:54:24;13.73;;;5.00;;
48975;SDS011;34791;52.752;8.346;2024-01-10T07:56:49;14.50;;;5.00;;
48975;SDS011;34791;52.752;8.346;2024-01-10T07:59:14;10.53;;;4.93;;
48975;SDS011;34791;52.752;8.346;2024-01-10T08:01:41;16.83;;;6.10;;
48975;SDS011;34791;52.752;8.346;2024-01-10T08:04:06;14.07;;;5.90;;
48975;SDS011;34791;52.752;8.346;2024-01-10T08:06:32;9.07;;;4.77;;
48975;SDS011;34791;52.752;8.346;2024-01-10T08:08:58;9.13;;;4.60;;
48975;SDS011;34791;52.752;8.346;2024-01-10T08:11:23;9.20;;;4.43;;
48975;SDS011;34791;52.752;8.346;2024-01-10T08:13:49;12.50;;;5.40;;
48975;SDS011;34791;52.752;8.346;2024-01-10T08:16:16;10.87;;;4.93;;
48975;SDS011;34791;52.752;8.346;2024-01-10T08:18:43;8.97;;;4.30;;
48975;SDS011;34791;52.752;8.346;2024-01-10T08:21:08;11.73;;;5.47;;
48975;SDS011;34791;52.752;8.346;2024-01-10T08:23:33;8.03;;;3.43;;
48975;SDS011;34791;52.752;8.346;2024-01-10T08:25:59;14.50;;;5.00;;
48975;SDS011;34791;52.752;8.346;2024-01-10T08:28:24;8.10;;;3.83;;
48975;SDS011;34791;52.752;8.346;2024-01-10T08:30:51;10.23;;;4.23;;
48975;SDS011;34791;52.752;8.346;2024-01-10T08:33:16;16.07;;;5.57;;
48975;SDS011;34791;52.752;8.346;2024-01-10T08:35:43;13.93;;;5.07;;
48975;SDS011;34791;52.752;8.346;2024-01-10T08:38:08;9.80;;;4.27;;
48975;SDS011;34791;52.752;8.346;2024-01-10T08:40:33;10.77;;;4.67;;
48975;SDS011;34791;52.752;8.346;2024-01-10T08:42:58;12.53;;;5.37;;
48975;SDS011;34791;52.752;8.346;2024-01-10T08:45:24;6.57;;;2.93;;
48975;SDS011;34791;52.752;8.346;2024-01-10T08:47:49;11.70;;;3.87;;
48975;SDS011;34791;52.752;8.346;2024-01-10T08:50:15;8.80;;;4.03;;
48975;SDS011;34791;52.752;8.346;2024-01-10T08:52:40;9.90;;;3.90;;
48975;SDS011;34791;52.752;8.346;2024-01-10T08:55:06;11.53;;;3.90;;
48975;SDS011;34791;52.752;8.346;2024-01-10T08:57:31;13.80;;;4.70;;
48975;SDS011;34791;52.752;8.346;2024-01-10T08:59:56;9.17;;;4.27;;
48975;SDS011;34791;52.752;8.346;2024-01-10T09:02:22;5.83;;;3.40;;
48975;SDS011;34791;52.752;8.346;2024-01-10T09:04:48;9.97;;;4.03;;
48975;SDS011;34791;52.752;8.346;2024-01-10T09:07:13;13.10;;;4.33;;
48975;SDS011;34791;52.752;8.346;2024-01-10T09:09:39;11.60;;;5.10;;
48975;SDS011;34791;52.752;8.346;2024-01-10T09:12:04;8.33;;;3.70;;
48975;SDS011;34791;52.752;8.346;2024-01-10T09:14:29;8.87;;;4.67;;
48975;SDS011;34791;52.752;8.346;2024-01-10T09:16:55;10.53;;;4.43;;
48975;SDS011;34791;52.752;8.346;2024-01-10T09:19:20;10.13;;;4.13;;
48975;SDS011;34791;52.752;8.346;2024-01-10T09:21:45;10.27;;;3.77;;
48975;SDS011;34791;52.752;8.346;2024-01-10T09:24:10;10.37;;;4.60;;
48975;SDS011;34791;52.752;8.346;2024-01-10T09:26:39;10.03;;;4.30;;
48975;SDS011;34791;52.752;8.346;2024-01-10T09:29:05;10.47;;;4.30;;
48975;SDS011;34791;52.752;8.346;2024-01-10T09:31:31;12.40;;;5.30;;
48975;SDS011;34791;52.752;8.346;2024-01-10T09:33:56;10.57;;;4.07;;
48975;SDS011;34791;52.752;8.346;2024-01-10T09:36:22;9.20;;;3.47;;
48975;SDS011;34791;52.752;8.346;2024-01-10T09:38:47;8.87;;;3.80;;
48975;SDS011;34791;52.752;8.346;2024-01-10T09:41:12;6.67;;;2.20;;
48975;SDS011;34791;52.752;8.346;2024-01-10T09:43:38;10.17;;;4.47;;
48975;SDS011;34791;52.752;8.346;2024-01-10T09:46:04;11.23;;;4.37;;
48975;SDS011;34791;52.752;8.346;2024-01-10T09:48:31;8.63;;;3.50;;
48975;SDS011;34791;52.752;8.346;2024-01-10T09:50:57;13.40;;;4.27;;
48975;SDS011;34791;52.752;8.346;2024-01-10T09:53:24;7.77;;;3.77;;
48975;SDS011;34791;52.752;8.346;2024-01-10T09:55:49;9.93;;;4.07;;
48975;SDS011;34791;52.752;8.346;2024-01-10T09:58:15;7.67;;;3.67;;
48975;SDS011;34791;52.752;8.346;2024-01-10T10:00:41;10.07;;;4.60;;
48975;SDS011;34791;52.752;8.346;2024-01-10T10:03:09;7.47;;;3.10;;
48975;SDS011;34791;52.752;8.346;2024-01-10T10:05:37;7.90;;;3.80;;
48975;SDS011;34791;52.752;8.346;2024-01-10T10:08:03;6.23;;;2.63;;
48975;SDS011;34791;52.752;8.346;2024-01-10T10:10:28;5.93;;;3.17;;
48975;SDS011;34791;52.752;8.346;2024-01-10T10:12:53;13.73;;;4.40;;
48975;SDS011;34791;52.752;8.346;2024-01-10T10:15:22;9.50;;;3.80;;
48975;SDS011;34791;52.752;8.346;2024-01-10T10:17:48;7.20;;;3.37;;
48975;SDS011;34791;52.752;8.346;2024-01-10T10:20:14;10.67;;;4.40;;
48975;SDS011;34791;52.752;8.346;2024-01-10T10:22:40;11.07;;;3.27;;
48975;SDS011;34791;52.752;8.346;2024-01-10T10:25:07;7.30;;;2.97;;
48975;SDS011;34791;52.752;8.346;2024-01-10T10:27:32;7.60;;;3.17;;
48975;SDS011;34791;52.752;8.346;2024-01-10T10:29:57;9.40;;;3.83;;
48975;SDS011;34791;52.752;8.346;2024-01-10T10:32:23;7.03;;;3.57;;
48975;SDS011;34791;52.752;8.346;2024-01-10T10:34:48;4.73;;;2.43;;
48975;SDS011;34791;52.752;8.346;2024-01-10T10:37:13;9.90;;;3.37;;
48975;SDS011;34791;52.752;8.346;2024-01-10T10:39:39;10.90;;;4.00;;
48975;SDS011;34791;52.752;8.346;2024-01-10T10:42:05;8.13;;;3.00;;
48975;SDS011;34791;52.752;8.346;2024-01-10T10:44:31;10.63;;;4.30;;
48975;SDS011;34791;52.752;8.346;2024-01-10T10:47:02;7.87;;;3.50;;
48975;SDS011;34791;52.752;8.346;2024-01-10T10:49:29;7.67;;;3.50;;
48975;SDS011;34791;52.752;8.346;2024-01-10T10:51:57;13.10;;;3.77;;
48975;SDS011;34791;52.752;8.346;2024-01-10T10:54:22;8.37;;;3.40;;
48975;SDS011;34791;52.752;8.346;2024-01-10T10:56:48;9.77;;;3.07;;
48975;SDS011;34791;52.752;8.346;2024-01-10T10:59:15;7.67;;;2.97;;
48975;SDS011;34791;52.752;8.346;2024-01-10T11:01:41;11.00;;;4.07;;
48975;SDS011;34791;52.752;8.346;2024-01-10T11:04:07;9.37;;;3.27;;
48975;SDS011;34791;52.752;8.346;2024-01-10T11:06:32;8.87;;;3.83;;
48975;SDS011;34791;52.752;8.346;2024-01-10T11:09:00;9.00;;;3.10;;
48975;SDS011;34791;52.752;8.346;2024-01-10T11:16:52;9.37;;;3.87;;
48975;SDS011;34791;52.752;8.346;2024-01-10T11:24:27;9.03;;;3.60;;
48975;SDS011;34791;52.752;8.346;2024-01-10T11:27:12;5.83;;;2.83;;
48975;SDS011;34791;52.752;8.346;2024-01-10T11:29:38;11.00;;;3.40;;
48975;SDS011;34791;52.752;8.346;2024-01-10T11:32:04;10.53;;;3.47;;
48975;SDS011;34791;52.752;8.346;2024-01-10T11:34:30;7.30;;;2.67;;
48975;SDS011;34791;52.752;8.346;2024-01-10T11:37:11;9.80;;;3.00;;
48975;SDS011;34791;52.752;8.346;2024-01-10T11:39:39;6.77;;;2.80;;
48975;SDS011;34791;52.752;8.346;2024-01-10T11:42:05;7.93;;;3.03;;
48975;SDS011;34791;52.752;8.346;2024-01-10T11:44:32;7.17;;;2.90;;
48975;SDS011;34791;52.752;8.346;2024-01-10T11:46:58;9.07;;;3.93;;
48975;SDS011;34791;52.752;8.346;2024-01-10T11:49:24;7.03;;;3.00;;
48975;SDS011;34791;52.752;8.346;2024-01-10T11:51:59;8.70;;;2.87;;
48975;SDS011;34791;52.752;8.346;2024-01-10T11:57:00;7.07;;;3.00;;
48975;SDS011;34791;52.752;8.346;2024-01-10T11:59:26;7.03;;;3.30;;
48975;SDS011;34791;52.752;8.346;2024-01-10T12:01:51;10.53;;;4.80;;
48975;SDS011;34791;52.752;8.346;2024-01-10T12:04:17;6.27;;;2.60;;
48975;SDS011;34791;52.752;8.346;2024-01-10T12:06:42;8.23;;;3.37;;
48975;SDS011;34791;52.752;8.346;2024-01-10T12:09:10;6.67;;;2.40;;
48975;SDS011;34791;52.752;8.346;2024-01-10T12:11:37;12.20;;;4.20;;
48975;SDS011;34791;52.752;8.346;2024-01-10T12:14:04;6.53;;;2.70;;
48975;SDS011;34791;52.752;8.346;2024-01-10T12:16:29;9.73;;;3.30;;
48975;SDS011;34791;52.752;8.346;2024-01-10T12:18:55;8.30;;;3.10;;
48975;SDS011;34791;52.752;8.346;2024-01-10T12:21:20;10.53;;;3.80;;
48975;SDS011;34791;52.752;8.346;2024-01-10T12:23:46;6.83;;;2.90;;
48975;SDS011;34791;52.752;8.346;2024-01-10T12:26:12;7.63;;;2.70;;
48975;SDS011;34791;52.752;8.346;2024-01-10T12:28:38;7.73;;;3.40;;
48975;SDS011;34791;52.752;8.346;2024-01-10T12:31:03;8.60;;;3.37;;
48975;SDS011;34791;52.752;8.346;2024-01-10T12:33:28;8.03;;;3.00;;
48975;SDS011;34791;52.752;8.346;2024-01-10T12:38:32;6.63;;;3.07;;
48975;SDS011;34791;52.752;8.346;2024-01-10T12:40:57;7.93;;;3.47;;
48975;SDS011;34791;52.752;8.346;2024-01-10T12:43:23;6.80;;;3.10;;
48975;SDS011;34791;52.752;8.346;2024-01-10T12:46:01;4.33;;;2.00;;
48975;SDS011;34791;52.752;8.346;2024-01-10T12:48:27;9.23;;;3.00;;
48975;SDS011;34791;52.752;8.346;2024-01-10T12:50:52;7.47;;;3.50;;
48975;SDS011;34791;52.752;8.346;2024-01-10T12:53:18;13.17;;;4.03;;
48975;SDS011;34791;52.752;8.346;2024-01-10T12:55:43;10.07;;;3.57;;
48975;SDS011;34791;52.752;8.346;2024-01-10T12:58:09;10.70;;;4.00;;
48975;SDS011;34791;52.752;8.346;2024-01-10T13:00:34;7.20;;;2.97;;
48975;SDS011;34791;52.752;8.346;2024-01-10T13:03:00;8.83;;;3.43;;
48975;SDS011;34791;52.752;8.346;2024-01-10T13:05:25;11.60;;;4.67;;
48975;SDS011;34791;52.752;8.346;2024-01-10T13:07:51;10.57;;;4.10;;
48975;SDS011;34791;52.752;8.346;2024-01-10T13:10:16;7.77;;;3.67;;
48975;SDS011;34791;52.752;8.346;2024-01-10T13:12:41;12.10;;;4.07;;
48975;SDS011;34791;52.752;8.346;2024-01-10T13:15:08;11.03;;;3.83;;
48975;SDS011;34791;52.752;8.346;2024-01-10T13:17:34;10.47;;;3.80;;
48975;SDS011;34791;52.752;8.346;2024-01-10T13:19:59;10.33;;;3.93;;
48975;SDS011;34791;52.752;8.346;2024-01-10T13:22:24;10.23;;;3.90;;
48975;SDS011;34791;52.752;8.346;2024-01-10T13:24:49;8.20;;;3.17;;
48975;SDS011;34791;52.752;8.346;2024-01-10T13:27:15;11.93;;;4.00;;
48975;SDS011;34791;52.752;8.346;2024-01-10T13:29:40;8.00;;;3.87;;
48975;SDS011;34791;52.752;8.346;2024-01-10T13:32:06;10.37;;;3.93;;
48975;SDS011;34791;52.752;8.346;2024-01-10T13:34:32;9.73;;;3.70;;
48975;SDS011;34791;52.752;8.346;2024-01-10T13:36:57;10.03;;;3.80;;
48975;SDS011;34791;52.752;8.346;2024-01-10T13:39:23;8.80;;;3.50;;
48975;SDS011;34791;52.752;8.346;2024-01-10T13:41:48;10.47;;;3.80;;
48975;SDS011;34791;52.752;8.346;2024-01-10T13:44:13;11.10;;;4.40;;
48975;SDS011;34791;52.752;8.346;2024-01-10T13:46:39;9.70;;;4.47;;
48975;SDS011;34791;52.752;8.346;2024-01-10T13:49:04;12.07;;;4.93;;
48975;SDS011;34791;52.752;8.346;2024-01-10T13:51:30;10.60;;;4.53;;
48975;SDS011;34791;52.752;8.346;2024-01-10T13:53:55;9.23;;;3.63;;
48975;SDS011;34791;52.752;8.346;2024-01-10T13:56:21;10.67;;;4.37;;
48975;SDS011;34791;52.752;8.346;2024-01-10T13:58:47;10.17;;;4.30;;
48975;SDS011;34791;52.752;8.346;2024-01-10T14:01:13;11.47;;;4.90;;
48975;SDS011;34791;52.752;8.346;2024-01-10T14:03:39;12.30;;;4.00;;
48975;SDS011;34791;52.752;8.346;2024-01-10T14:06:04;8.37;;;3.53;;
48975;SDS011;34791;52.752;8.346;2024-01-10T14:08:29;9.40;;;4.70;;
48975;SDS011;34791;52.752;8.346;2024-01-10T14:10:55;12.53;;;5.43;;
48975;SDS011;34791;52.752;8.346;2024-01-10T14:13:20;15.50;;;4.80;;
48975;SDS011;34791;52.752;8.346;2024-01-10T14:15:48;14.63;;;5.20;;
48975;SDS011;34791;52.752;8.346;2024-01-10T14:18:13;13.03;;;5.60;;
48975;SDS011;34791;52.752;8.346;2024-01-10T14:20:38;14.37;;;5.70;;
48975;SDS011;34791;52.752;8.346;2024-01-10T14:23:03;9.47;;;2.97;;
48975;SDS011;34791;52.752;8.346;2024-01-10T14:25:29;10.33;;;4.10;;
48975;SDS011;34791;52.752;8.346;2024-01-10T14:27:54;9.13;;;3.93;;
48975;SDS011;34791;52.752;8.346;2024-01-10T14:30:19;10.07;;;4.23;;
48975;SDS011;34791;52.752;8.346;2024-01-10T14:32:45;11.23;;;3.67;;
48975;SDS011;34791;52.752;8.346;2024-01-10T14:35:12;12.73;;;4.93;;
48975;SDS011;34791;52.752;8.346;2024-01-10T14:37:38;13.93;;;4.67;;
48975;SDS011;34791;52.752;8.346;2024-01-10T14:40:03;12.77;;;4.43;;
48975;SDS011;34791;52.752;8.346;2024-01-10T14:42:31;10.30;;;4.63;;
48975;SDS011;34791;52.752;8.346;2024-01-10T14:44:57;10.00;;;4.70;;